Time;durP1;ratioP1;P1;durP2;ratioP2;P2;SDS_P1;SDS_P2;PMS_P1;PMS_P2;Temp;Humidity;BMP_temperature;BMP_pressure;BME280_temperature;BME280_humidity;BME280_pressure;Samples;Min_cycle;Max_cycle;Signal;HPM_P1;HPM_P2
2023/03/28 02:02:37;;;;;;;11.32;5.05;;;;;;;;;;4247879;33;20136;-70
2023/03/28 02:05:10;;;;;;;18.33;5.85;;;;;;;;;;4251622;33;20057;-70
2023/03/28 02:07:38;;;;;;;15.93;4.87;;;;;;;;;;4250497;33;20428;-71
2023/03/28 02:10:07;;;;;;;16.27;5.68;;;;;;;;;;4248717;33;20862;-70
2023/03/28 02:12:41;;;;;;;20.12;7.22;;;;;;;;;;4249572;33;20050;-70
2023/03/28 02:15:10;;;;;;;19.50;6.10;;;;;;;;;;4234572;33;20060;-70
2023/03/28 02:17:40;;;;;;;18.92;6.37;;;;;;;;;;4232147;33;20050;-71
2023/03/28 02:20:10;;;;;;;15.48;5.85;;;;;;;;;;4219933;34;20068;-70
2023/03/28 02:22:54;;;;;;;17.50;5.75;;;;;;;;;;4206578;34;20039;-70
2023/03/28 02:25:21;;;;;;;15.93;6.55;;;;;;;;;;4190862;34;20410;-70
2023/03/28 02:27:50;;;;;;;14.70;5.60;;;;;;;;;;4201934;34;20069;-70
2023/03/28 02:30:18;;;;;;;10.00;4.53;;;;;;;;;;4206594;34;20055;-70
2023/03/28 02:32:48;;;;;;;21.95;6.15;;;;;;;;;;4206361;34;20069;-70
2023/03/28 02:35:22;;;;;;;19.70;6.97;;;;;;;;;;4219187;33;20167;-70
2023/03/28 02:37:50;;;;;;;16.80;5.85;;;;;;;;;;4220152;33;20027;-70
2023/03/28 02:40:17;;;;;;;18.77;5.65;;;;;;;;;;4218313;33;20070;-70
2023/03/28 02:43:01;;;;;;;10.57;5.32;;;;;;;;;;4206500;34;20072;-70
2023/03/28 02:45:28;;;;;;;;;;;;;;;;;;4207248;34;20062;-70
2023/03/28 02:48:00;;;;;;;13.95;5.53;;;;;;;;;;4203677;34;20470;-70
2023/03/28 02:50:28;;;;;;;14.25;6.05;;;;;;;;;;4195287;34;20059;-70
2023/03/28 02:53:13;;;;;;;11.50;6.55;;;;;;;;;;4187409;34;20044;-71
2023/03/28 02:55:45;;;;;;;6.50;3.78;;;;;;;;;;4177861;34;20055;-70
2023/03/28 02:58:16;;;;;;;7.50;4.05;;;;;;;;;;4192204;34;20047;-70
2023/03/28 03:00:42;;;;;;;10.70;5.32;;;;;;;;;;4191441;34;20081;-70
2023/03/28 03:03:10;;;;;;;15.93;7.00;;;;;;;;;;4188838;34;20059;-70
2023/03/28 03:05:36;;;;;;;15.13;5.07;;;;;;;;;;4179461;34;20059;-70
2023/03/28 03:08:03;;;;;;;18.05;6.12;;;;;;;;;;4178563;34;20077;-69
2023/03/28 03:10:29;;;;;;;9.18;5.15;;;;;;;;;;4176473;34;20579;-70
2023/03/28 03:12:56;;;;;;;13.05;5.93;;;;;;;;;;4180080;34;20510;-70
2023/03/28 03:15:24;;;;;;;9.45;4.97;;;;;;;;;;4192505;34;20044;-70
2023/03/28 03:17:51;;;;;;;16.12;5.15;;;;;;;;;;4193064;34;20465;-69
2023/03/28 03:20:21;;;;;;;7.97;4.22;;;;;;;;;;4218609;33;20130;-70
2023/03/28 03:22:47;;;;;;;8.38;3.85;;;;;;;;;;4220774;34;20071;-69
2023/03/28 03:25:14;;;;;;;13.75;5.95;;;;;;;;;;4250717;33;20415;-70
2023/03/28 03:27:41;;;;;;;10.85;5.22;;;;;;;;;;4251112;33;20076;-70
2023/03/28 03:30:08;;;;;;;15.32;4.97;;;;;;;;;;4251770;33;20193;-70
2023/03/28 03:32:38;;;;;;;13.20;4.10;;;;;;;;;;4250887;33;20076;-70
2023/03/28 03:35:05;;;;;;;9.77;4.18;;;;;;;;;;4253312;33;20062;-70
2023/03/28 03:37:38;;;;;;;11.55;4.45;;;;;;;;;;4253558;33;20045;-70
2023/03/28 03:40:05;;;;;;;9.02;4.72;;;;;;;;;;4253412;33;20076;-70
2023/03/28 03:42:32;;;;;;;10.98;4.35;;;;;;;;;;4250562;33;20054;-71
2023/03/28 03:44:59;;;;;;;9.13;4.40;;;;;;;;;;4254258;33;20076;-70
2023/03/28 03:47:26;;;;;;;8.10;5.57;;;;;;;;;;4235913;33;20042;-70
2023/03/28 03:49:52;;;;;;;10.20;3.97;;;;;;;;;;4237562;33;20034;-70
2023/03/28 03:52:18;;;;;;;10.10;4.97;;;;;;;;;;4236346;33;20444;-71
2023/03/28 03:54:45;;;;;;;6.78;4.43;;;;;;;;;;4234241;33;20173;-70
2023/03/28 03:57:11;;;;;;;10.18;4.43;;;;;;;;;;4236804;33;20095;-70
2023/03/28 03:59:38;;;;;;;7.18;5.03;;;;;;;;;;4236119;33;20064;-69
2023/03/28 04:02:04;;;;;;;9.68;4.68;;;;;;;;;;4235676;33;20079;-70
2023/03/28 04:04:32;;;;;;;19.42;4.68;;;;;;;;;;4234254;33;20027;-71
2023/03/28 04:06:58;;;;;;;10.55;4.22;;;;;;;;;;4237136;33;20079;-70
2023/03/28 04:09:28;;;;;;;7.03;3.85;;;;;;;;;;4236459;33;20077;-70
2023/03/28 04:11:55;;;;;;;11.05;4.82;;;;;;;;;;4236519;33;20062;-70
2023/03/28 04:14:21;;;;;;;9.60;5.03;;;;;;;;;;4235602;33;20063;-71
2023/03/28 04:16:49;;;;;;;10.52;4.37;;;;;;;;;;4234072;33;20030;-70
2023/03/28 04:19:17;;;;;;;10.57;5.10;;;;;;;;;;4247777;33;20064;-70
2023/03/28 04:21:46;;;;;;;8.00;4.45;;;;;;;;;;4257133;33;20046;-70
2023/03/28 04:24:16;;;;;;;9.55;4.68;;;;;;;;;;4249934;33;20406;-70
2023/03/28 04:26:44;;;;;;;7.22;3.70;;;;;;;;;;4248504;33;20058;-70
2023/03/28 04:29:11;;;;;;;14.35;5.37;;;;;;;;;;4207569;34;20086;-70
2023/03/28 04:31:38;;;;;;;7.47;5.00;;;;;;;;;;4181408;34;20483;-70
2023/03/28 04:34:07;;;;;;;11.68;5.47;;;;;;;;;;4193531;34;20063;-70
2023/03/28 04:36:36;;;;;;;11.20;5.35;;;;;;;;;;4181464;34;20135;-70
2023/03/28 04:39:03;;;;;;;7.12;4.55;;;;;;;;;;4178414;34;20065;-70
2023/03/28 04:41:32;;;;;;;13.85;5.53;;;;;;;;;;4167006;34;20056;-70
2023/03/28 04:44:00;;;;;;;12.07;5.35;;;;;;;;;;4166911;34;20160;-70
2023/03/28 04:46:28;;;;;;;10.00;5.32;;;;;;;;;;4166794;34;20040;-69
2023/03/28 04:48:56;;;;;;;11.82;4.60;;;;;;;;;;4164812;34;20069;-71
2023/03/28 04:51:27;;;;;;;9.50;4.32;;;;;;;;;;4167593;34;20086;-70
2023/03/28 04:53:53;;;;;;;9.18;4.30;;;;;;;;;;4166852;34;20040;-69
2023/03/28 04:56:22;;;;;;;9.70;4.00;;;;;;;;;;4167539;34;20072;-69
2023/03/28 04:58:48;;;;;;;5.90;3.75;;;;;;;;;;4166292;34;20036;-69
2023/03/28 05:01:15;;;;;;;7.40;4.20;;;;;;;;;;4201177;34;20396;-70
2023/03/28 05:03:44;;;;;;;6.85;3.92;;;;;;;;;;4195263;34;20919;-69
2023/03/28 05:06:10;;;;;;;9.73;3.92;;;;;;;;;;4193348;34;20087;-68
2023/03/28 05:08:37;;;;;;;5.60;2.90;;;;;;;;;;4193870;34;20069;-69
2023/03/28 05:11:10;;;;;;;8.65;3.85;;;;;;;;;;4201453;34;20486;-71
2023/03/28 05:13:36;;;;;;;;;;;;;;;;;;4222885;34;20719;-69
2023/03/28 05:16:04;;;;;;;4.50;3.35;;;;;;;;;;4216933;34;19950;-69
2023/03/28 05:18:31;;;;;;;4.97;3.17;;;;;;;;;;4207598;34;20046;-69
2023/03/28 05:20:58;;;;;;;6.78;3.12;;;;;;;;;;4211866;34;20062;-69
2023/03/28 05:23:24;;;;;;;7.18;4.00;;;;;;;;;;4219787;34;20053;-69
2023/03/28 05:25:52;;;;;;;4.57;3.33;;;;;;;;;;4239591;33;20229;-70
2023/03/28 05:28:18;;;;;;;3.33;3.03;;;;;;;;;;4234180;33;20081;-70
2023/03/28 05:30:45;;;;;;;4.43;3.40;;;;;;;;;;4235324;33;20056;-70
2023/03/28 05:33:11;;;;;;;8.80;2.87;;;;;;;;;;4234917;33;20158;-70
2023/03/28 05:35:38;;;;;;;3.60;2.30;;;;;;;;;;4232410;33;20595;-71
2023/03/28 05:38:05;;;;;;;5.25;2.53;;;;;;;;;;4234482;33;20104;-69
2023/03/28 05:40:31;;;;;;;3.97;2.30;;;;;;;;;;4234414;33;20199;-69
2023/03/28 05:42:57;;;;;;;3.80;2.35;;;;;;;;;;4233961;33;20824;-70
2023/03/28 05:45:24;;;;;;;4.07;2.05;;;;;;;;;;4204961;34;20457;-69
2023/03/28 05:47:53;;;;;;;3.97;2.60;;;;;;;;;;4204116;34;20043;-70
2023/03/28 05:50:19;;;;;;;3.75;2.42;;;;;;;;;;4207714;34;20797;-70
2023/03/28 05:52:46;;;;;;;1.80;1.70;;;;;;;;;;4204763;34;20047;-70
2023/03/28 05:55:12;;;;;;;2.95;2.12;;;;;;;;;;4204980;34;20107;-70
2023/03/28 05:57:38;;;;;;;2.58;2.00;;;;;;;;;;4186809;34;20906;-70
2023/03/28 06:00:12;;;;;;;2.20;1.50;;;;;;;;;;4189204;34;20076;-70
2023/03/28 06:02:44;;;;;;;2.85;1.87;;;;;;;;;;4174109;34;20446;-72
2023/03/28 06:05:11;;;;;;;1.83;1.50;;;;;;;;;;4191150;34;20098;-71
2023/03/28 06:07:40;;;;;;;1.73;1.62;;;;;;;;;;4186606;34;20521;-70
2023/03/28 06:10:08;;;;;;;3.40;2.03;;;;;;;;;;4190963;34;20077;-71
2023/03/28 06:12:34;;;;;;;2.25;1.92;;;;;;;;;;4190798;34;20044;-70
2023/03/28 06:15:01;;;;;;;6.53;2.00;;;;;;;;;;4192243;34;20089;-70
2023/03/28 06:17:28;;;;;;;2.45;2.10;;;;;;;;;;4215500;34;20039;-70
2023/03/28 06:19:55;;;;;;;2.47;1.62;;;;;;;;;;4192018;34;20050;-70
2023/03/28 06:22:22;;;;;;;3.28;1.70;;;;;;;;;;4191786;34;20082;-70
2023/03/28 06:24:48;;;;;;;4.32;2.25;;;;;;;;;;4191129;34;20422;-71
2023/03/28 06:27:24;;;;;;;2.85;2.00;;;;;;;;;;4189734;34;20043;-71
2023/03/28 06:29:50;;;;;;;3.67;2.47;;;;;;;;;;4178845;34;20644;-70
2023/03/28 06:32:18;;;;;;;3.17;2.03;;;;;;;;;;4192503;34;20094;-70
2023/03/28 06:34:45;;;;;;;2.05;1.95;;;;;;;;;;4218217;34;20875;-70
2023/03/28 06:37:12;;;;;;;3.45;2.15;;;;;;;;;;4219875;34;20393;-69
2023/03/28 06:39:40;;;;;;;3.53;2.45;;;;;;;;;;4205185;34;20415;-70
2023/03/28 06:42:06;;;;;;;4.22;2.25;;;;;;;;;;4192989;34;20386;-70
2023/03/28 06:44:33;;;;;;;3.03;2.30;;;;;;;;;;4206505;34;20045;-69
2023/03/28 06:47:01;;;;;;;3.78;1.98;;;;;;;;;;4205549;34;20509;-70
2023/03/28 06:49:28;;;;;;;2.53;1.77;;;;;;;;;;4205616;34;20063;-70
2023/03/28 06:51:56;;;;;;;1.90;1.80;;;;;;;;;;4209893;34;20061;-69
2023/03/28 06:54:23;;;;;;;1.52;1.52;;;;;;;;;;4207454;34;20076;-70
2023/03/28 06:56:49;;;;;;;4.12;2.20;;;;;;;;;;4206811;34;20503;-70
2023/03/28 06:59:15;;;;;;;2.62;2.30;;;;;;;;;;4205986;34;20074;-70
2023/03/28 07:01:43;;;;;;;3.42;2.35;;;;;;;;;;4209797;33;20062;-70
2023/03/28 07:04:09;;;;;;;3.37;1.87;;;;;;;;;;4224125;33;20474;-70
2023/03/28 07:06:35;;;;;;;5.00;2.62;;;;;;;;;;4226040;33;20050;-70
2023/03/28 07:09:02;;;;;;;2.17;1.92;;;;;;;;;;4224112;33;20052;-69
2023/03/28 07:11:29;;;;;;;3.60;2.50;;;;;;;;;;4235238;33;20056;-70
2023/03/28 07:13:55;;;;;;;2.20;2.05;;;;;;;;;;4238233;33;20068;-70
2023/03/28 07:16:21;;;;;;;2.78;1.83;;;;;;;;;;4234846;33;20079;-71
2023/03/28 07:18:48;;;;;;;2.05;1.87;;;;;;;;;;4237471;33;20100;-69
2023/03/28 07:21:17;;;;;;;2.58;2.33;;;;;;;;;;4250913;33;20848;-69
2023/03/28 07:23:44;;;;;;;2.78;2.53;;;;;;;;;;4249922;33;20553;-69
2023/03/28 07:26:11;;;;;;;6.05;2.92;;;;;;;;;;4249140;33;20081;-70
2023/03/28 07:28:38;;;;;;;3.78;2.60;;;;;;;;;;4252139;33;20178;-68
2023/03/28 07:31:04;;;;;;;6.40;2.85;;;;;;;;;;4251301;33;20034;-69
2023/03/28 07:33:33;;;;;;;2.85;1.90;;;;;;;;;;4238421;33;20069;-68
2023/03/28 07:35:59;;;;;;;1.37;1.27;;;;;;;;;;4249741;33;20090;-72
2023/03/28 07:38:26;;;;;;;2.25;2.10;;;;;;;;;;4249056;33;20079;-68
2023/03/28 07:40:53;;;;;;;2.42;2.05;;;;;;;;;;4251367;33;20072;-68
2023/03/28 07:43:20;;;;;;;3.12;1.60;;;;;;;;;;4239278;33;20074;-68
2023/03/28 07:45:47;;;;;;;1.20;1.15;;;;;;;;;;4236999;33;20034;-68
2023/03/28 07:48:13;;;;;;;6.62;1.95;;;;;;;;;;4208222;34;20072;-71
2023/03/28 07:50:40;;;;;;;9.07;1.30;;;;;;;;;;4206472;34;20047;-67
2023/03/28 07:53:07;;;;;;;7.53;1.40;;;;;;;;;;4208998;34;20101;-68
2023/03/28 07:55:35;;;;;;;1.02;0.93;;;;;;;;;;4197207;34;20047;-67
2023/03/28 07:58:04;;;;;;;5.40;0.80;;;;;;;;;;4208882;34;20517;-68
2023/03/28 08:00:31;;;;;;;1.52;1.02;;;;;;;;;;4206842;34;20608;-71
2023/03/28 08:02:59;;;;;;;2.70;1.27;;;;;;;;;;4208145;34;20464;-68
2023/03/28 08:05:25;;;;;;;1.40;1.25;;;;;;;;;;4207396;34;20479;-68
2023/03/28 08:07:52;;;;;;;5.70;2.03;;;;;;;;;;4196296;34;20077;-68
2023/03/28 08:10:21;;;;;;;5.50;2.17;;;;;;;;;;4192545;34;20073;-70
2023/03/28 08:13:00;;;;;;;1.48;1.05;;;;;;;;;;4197626;34;20063;-68
2023/03/28 08:15:36;;;;;;;13.18;2.00;;;;;;;;;;4205328;34;20058;-69
2023/03/28 08:18:06;;;;;;;7.45;1.77;;;;;;;;;;4172199;34;20040;-69
2023/03/28 08:20:45;;;;;;;4.22;2.33;;;;;;;;;;4171394;34;21147;-69
2023/03/28 08:23:21;;;;;;;3.20;2.22;;;;;;;;;;4168383;34;20080;-68
2023/03/28 08:26:05;;;;;;;2.35;2.15;;;;;;;;;;4167812;34;20071;-68
2023/03/28 08:28:35;;;;;;;2.87;1.55;;;;;;;;;;4174889;34;20059;-68
2023/03/28 08:31:08;;;;;;;3.95;1.40;;;;;;;;;;4167678;34;20498;-68
2023/03/28 08:33:34;;;;;;;5.20;2.85;;;;;;;;;;4176716;34;20513;-68
2023/03/28 08:36:01;;;;;;;2.53;1.42;;;;;;;;;;4173938;34;20112;-70
2023/03/28 08:38:28;;;;;;;2.65;1.67;;;;;;;;;;4180442;34;20283;-68
2023/03/28 08:41:17;;;;;;;3.83;2.30;;;;;;;;;;4180528;34;20135;-68
2023/03/28 08:43:46;;;;;;;;;;;;;;;;;;4153653;34;20061;-68
2023/03/28 08:46:15;;;;;;;3.17;2.20;;;;;;;;;;4181326;34;19993;-70
2023/03/28 08:48:46;;;;;;;7.05;2.40;;;;;;;;;;4182370;34;20451;-68
2023/03/28 08:51:34;;;;;;;3.30;2.23;;;;;;;;;;4191520;34;20243;-68
2023/03/28 08:54:07;;;;;;;4.57;1.27;;;;;;;;;;4195248;34;20061;-68
2023/03/28 08:56:38;;;;;;;4.03;2.42;;;;;;;;;;4187904;34;20028;-67
2023/03/28 08:59:06;;;;;;;1.60;1.05;;;;;;;;;;4175310;34;20436;-69
2023/03/28 09:01:33;;;;;;;5.25;2.55;;;;;;;;;;4151955;34;20058;-67
2023/03/28 09:04:00;;;;;;;2.20;1.60;;;;;;;;;;4162951;34;20056;-69
2023/03/28 09:06:38;;;;;;;1.42;1.33;;;;;;;;;;4184383;34;20099;-68
2023/03/28 09:09:15;;;;;;;4.45;1.48;;;;;;;;;;4203371;34;20104;-70
2023/03/28 09:11:47;;;;;;;1.65;1.55;;;;;;;;;;4208197;34;20047;-69
2023/03/28 09:14:19;;;;;;;1.00;0.90;;;;;;;;;;4194364;34;20125;-69
2023/03/28 09:16:58;;;;;;;1.65;1.42;;;;;;;;;;4204829;34;20092;-70
2023/03/28 09:19:31;;;;;;;3.62;1.30;;;;;;;;;;4208693;34;20043;-68
2023/03/28 09:22:07;;;;;;;1.67;0.80;;;;;;;;;;4207595;34;20047;-68
2023/03/28 09:24:33;;;;;;;1.52;1.20;;;;;;;;;;4231217;33;20200;-68
2023/03/28 09:27:05;;;;;;;7.05;1.02;;;;;;;;;;4233115;33;20082;-68
2023/03/28 09:29:35;;;;;;;0.95;0.95;;;;;;;;;;4221444;33;20264;-70
2023/03/28 09:32:04;;;;;;;0.80;0.80;;;;;;;;;;4214236;34;20466;-69
2023/03/28 09:34:38;;;;;;;1.12;1.00;;;;;;;;;;4218030;34;20841;-71
2023/03/28 09:37:23;;;;;;;1.10;1.00;;;;;;;;;;4206596;34;20079;-68
2023/03/28 09:39:53;;;;;;;1.00;1.00;;;;;;;;;;4218486;34;20096;-69
2023/03/28 09:42:20;;;;;;;1.70;1.30;;;;;;;;;;4205747;34;20074;-68
2023/03/28 09:45:00;;;;;;;2.90;2.08;;;;;;;;;;4208587;34;20550;-69
2023/03/28 09:47:31;;;;;;;3.53;1.37;;;;;;;;;;4207623;34;20176;-66
2023/03/28 09:49:58;;;;;;;2.62;1.65;;;;;;;;;;4206582;34;20059;-70
2023/03/28 09:52:24;;;;;;;2.97;1.27;;;;;;;;;;4209246;34;20816;-67
2023/03/28 09:54:52;;;;;;;3.87;1.02;;;;;;;;;;4205213;34;20051;-68
2023/03/28 09:57:19;;;;;;;3.10;1.23;;;;;;;;;;4194756;34;20085;-70
2023/03/28 10:00:01;;;;;;;0.93;0.90;;;;;;;;;;4189652;34;20047;-71
2023/03/28 10:02:31;;;;;;;4.87;1.95;;;;;;;;;;4179011;34;20371;-68
2023/03/28 10:04:58;;;;;;;2.55;1.62;;;;;;;;;;4181495;34;20077;-69
2023/03/28 10:07:27;;;;;;;1.10;1.10;;;;;;;;;;4179784;34;20056;-70
2023/03/28 10:09:56;;;;;;;1.00;0.90;;;;;;;;;;4168053;34;20448;-69
2023/03/28 10:12:30;;;;;;;2.42;1.20;;;;;;;;;;4196395;34;20043;-68
2023/03/28 10:14:57;;;;;;;3.05;1.33;;;;;;;;;;4209650;34;20048;-69
2023/03/28 10:17:37;;;;;;;4.35;1.30;;;;;;;;;;4205127;34;20057;-69
2023/03/28 10:20:09;;;;;;;2.72;1.15;;;;;;;;;;4207625;34;20170;-69
2023/03/28 10:22:37;;;;;;;1.92;1.42;;;;;;;;;;4207850;34;20043;-69
2023/03/28 10:25:05;;;;;;;0.70;0.70;;;;;;;;;;4206304;34;20523;-71
2023/03/28 10:27:38;;;;;;;4.40;0.95;;;;;;;;;;4206696;34;20043;-68
2023/03/28 10:30:25;;;;;;;2.03;1.85;;;;;;;;;;4207379;34;20065;-69
2023/03/28 10:33:10;;;;;;;1.75;0.80;;;;;;;;;;4208119;34;20043;-72
2023/03/28 10:35:40;;;;;;;0.70;0.70;;;;;;;;;;4221406;34;20055;-69
2023/03/28 10:38:14;;;;;;;3.58;1.90;;;;;;;;;;4192123;34;20047;-69
2023/03/28 10:40:41;;;;;;;2.78;1.50;;;;;;;;;;4191850;34;20214;-69
2023/03/28 10:43:12;;;;;;;7.65;2.00;;;;;;;;;;4176481;34;20087;-69
2023/03/28 10:45:44;;;;;;;2.50;1.70;;;;;;;;;;4179141;34;20059;-69
2023/03/28 10:48:15;;;;;;;2.20;1.20;;;;;;;;;;4192308;34;20510;-69
2023/03/28 10:50:52;;;;;;;1.77;0.95;;;;;;;;;;4191474;34;20065;-70
2023/03/28 10:53:24;;;;;;;2.17;1.70;;;;;;;;;;4193549;34;20185;-69
2023/03/28 10:56:05;;;;;;;0.73;0.73;;;;;;;;;;4192940;34;20502;-69
2023/03/28 10:58:38;;;;;;;4.85;0.93;;;;;;;;;;4206701;34;20259;-69
2023/03/28 11:01:05;;;;;;;;;;;;;;;;;;4344824;28;20125;-73
2023/03/28 11:03:41;;;;;;;1.45;1.35;;;;;;;;;;4213949;33;19949;-70
2023/03/28 11:06:07;;;;;;;4.22;1.70;;;;;;;;;;4220302;34;20112;-70
2023/03/28 11:08:46;;;;;;;2.78;1.17;;;;;;;;;;4225622;33;20043;-69
2023/03/28 11:11:35;;;;;;;3.83;1.37;;;;;;;;;;4207607;33;20172;-68
2023/03/28 11:14:19;;;;;;;1.05;1.05;;;;;;;;;;4223736;33;20047;-68
2023/03/28 11:17:04;;;;;;;1.70;1.52;;;;;;;;;;4233197;33;20053;-70
2023/03/28 11:19:55;;;;;;;1.62;1.25;;;;;;;;;;4233707;33;20107;-70
2023/03/28 11:22:22;;;;;;;4.10;1.30;;;;;;;;;;4230411;33;20066;-70
2023/03/28 11:25:02;;;;;;;3.22;1.60;;;;;;;;;;4232736;33;20194;-67
2023/03/28 11:27:41;;;;;;;1.23;0.93;;;;;;;;;;4223577;33;20046;-71
2023/03/28 11:30:18;;;;;;;4.30;2.72;;;;;;;;;;4209524;33;20160;-70
2023/03/28 11:32:48;;;;;;;2.67;1.45;;;;;;;;;;4203586;34;20059;-70
2023/03/28 11:35:35;;;;;;;2.28;1.60;;;;;;;;;;4194574;34;20508;-70
2023/03/28 11:38:19;;;;;;;3.58;1.70;;;;;;;;;;4191612;34;20062;-70
2023/03/28 11:40:51;;;;;;;1.73;1.12;;;;;;;;;;4198952;34;20496;-70
2023/03/28 11:43:33;;;;;;;0.95;0.95;;;;;;;;;;4179059;34;20563;-70
2023/03/28 11:46:22;;;;;;;0.52;0.52;;;;;;;;;;4178961;34;20032;-71
2023/03/28 11:49:06;;;;;;;1.98;1.62;;;;;;;;;;4176564;34;20612;-72
2023/03/28 11:51:41;;;;;;;4.00;1.50;;;;;;;;;;4178595;34;20066;-69
2023/03/28 11:54:10;;;;;;;1.80;1.15;;;;;;;;;;4167836;34;20052;-70
2023/03/28 11:56:55;;;;;;;0.68;0.68;;;;;;;;;;4167142;34;20119;-73
2023/03/28 11:59:32;;;;;;;6.40;2.33;;;;;;;;;;4166609;34;20052;-69
2023/03/28 12:02:16;;;;;;;2.25;1.73;;;;;;;;;;4165304;34;20060;-69
2023/03/28 12:04:55;;;;;;;1.30;1.00;;;;;;;;;;4169510;34;20954;-70
2023/03/28 12:07:23;;;;;;;5.65;2.58;;;;;;;;;;4165778;34;20074;-69
2023/03/28 12:09:58;;;;;;;6.22;2.12;;;;;;;;;;4169149;34;20048;-69
2023/03/28 12:12:29;;;;;;;9.85;1.62;;;;;;;;;;4171764;34;20191;-73
2023/03/28 12:14:59;;;;;;;3.65;1.90;;;;;;;;;;4195951;34;20059;-70
2023/03/28 12:17:29;;;;;;;2.08;1.40;;;;;;;;;;4194742;34;20047;-70
2023/03/28 12:19:56;;;;;;;1.55;1.40;;;;;;;;;;4193061;34;20125;-69
2023/03/28 12:22:42;;;;;;;1.27;1.17;;;;;;;;;;4182179;34;20043;-70
2023/03/28 12:25:10;;;;;;;6.57;1.62;;;;;;;;;;4210349;33;20056;-69
2023/03/28 12:27:56;;;;;;;5.25;2.05;;;;;;;;;;4222925;33;20052;-70
2023/03/28 12:30:29;;;;;;;1.92;1.20;;;;;;;;;;4202202;34;20061;-69
2023/03/28 12:32:57;;;;;;;;;;;;;;;;;;4194689;34;20055;-69
2023/03/28 12:35:30;;;;;;;2.80;2.17;;;;;;;;;;4191524;34;20375;-74
2023/03/28 12:38:15;;;;;;;6.37;2.85;;;;;;;;;;4191016;34;20044;-69
2023/03/28 12:40:48;;;;;;;2.87;1.55;;;;;;;;;;4209437;34;20366;-70
2023/03/28 12:43:14;;;;;;;;;;;;;;;;;;4178667;34;20043;-70
2023/03/28 12:45:48;;;;;;;6.53;3.28;;;;;;;;;;4146578;34;20780;-70
2023/03/28 12:48:21;;;;;;;8.07;1.95;;;;;;;;;;4138813;34;20070;-70
2023/03/28 12:50:47;;;;;;;;;;;;;;;;;;4139427;34;20104;-70
2023/03/28 12:53:14;;;;;;;4.47;1.92;;;;;;;;;;4141640;34;19959;-70
2023/03/28 12:55:44;;;;;;;2.58;1.45;;;;;;;;;;4142684;34;20090;-70
2023/03/28 12:58:21;;;;;;;4.93;1.65;;;;;;;;;;4152331;34;20058;-70
2023/03/28 13:01:16;;;;;;;8.80;2.12;;;;;;;;;;4154324;34;20060;-73
2023/03/28 13:04:02;;;;;;;1.48;1.33;;;;;;;;;;4165127;34;20061;-71
2023/03/28 13:06:47;;;;;;;2.40;1.62;;;;;;;;;;4144987;34;20130;-73
2023/03/28 13:09:39;;;;;;;1.02;0.90;;;;;;;;;;4142889;34;20529;-70
2023/03/28 13:12:18;;;;;;;2.15;1.10;;;;;;;;;;4144468;34;20623;-73
2023/03/28 13:14:55;;;;;;;4.12;1.90;;;;;;;;;;4171934;34;20176;-71
2023/03/28 13:17:23;;;;;;;1.17;1.15;;;;;;;;;;4190892;34;20203;-70
2023/03/28 13:19:52;;;;;;;5.30;1.87;;;;;;;;;;4193513;34;21646;-72
2023/03/28 13:22:26;;;;;;;1.48;1.20;;;;;;;;;;4180179;34;20051;-69
2023/03/28 13:24:53;;;;;;;1.42;1.10;;;;;;;;;;4186165;34;20035;-69
2023/03/28 13:27:32;;;;;;;2.05;1.50;;;;;;;;;;4213188;33;20404;-69
2023/03/28 13:30:04;;;;;;;2.55;1.12;;;;;;;;;;4221484;33;20047;-69
2023/03/28 13:32:32;;;;;;;1.90;1.67;;;;;;;;;;4221099;33;20051;-70
2023/03/28 13:35:04;;;;;;;2.40;1.75;;;;;;;;;;4216990;33;20059;-68
2023/03/28 13:37:42;;;;;;;4.45;2.17;;;;;;;;;;4218483;33;20144;-71
2023/03/28 13:40:27;;;;;;;4.03;1.75;;;;;;;;;;4195162;34;20878;-70
2023/03/28 13:42:57;;;;;;;9.45;4.60;;;;;;;;;;4176496;34;20036;-69
2023/03/28 13:45:24;;;;;;;3.08;2.00;;;;;;;;;;4171039;34;20089;-69
2023/03/28 13:47:51;;;;;;;4.25;2.22;;;;;;;;;;4174222;34;20063;-69
2023/03/28 13:50:18;;;;;;;3.87;1.83;;;;;;;;;;4188755;34;20079;-69
2023/03/28 13:52:44;;;;;;;1.65;1.42;;;;;;;;;;4195573;34;20035;-69
2023/03/28 13:55:19;;;;;;;1.50;1.10;;;;;;;;;;4232807;33;20081;-70
2023/03/28 13:57:46;;;;;;;3.05;1.42;;;;;;;;;;4231338;33;20077;-70
2023/03/28 14:00:15;;;;;;;5.60;2.35;;;;;;;;;;4226363;33;20123;-69
2023/03/28 14:02:44;;;;;;;12.95;3.83;;;;;;;;;;4225467;33;20402;-68
2023/03/28 14:05:12;;;;;;;7.75;3.00;;;;;;;;;;4203621;33;20073;-71
2023/03/28 14:07:38;;;;;;;3.15;2.28;;;;;;;;;;4219353;33;20114;-69
2023/03/28 14:10:24;;;;;;;4.95;1.73;;;;;;;;;;4220083;33;20038;-69
2023/03/28 14:12:51;;;;;;;1.85;1.35;;;;;;;;;;4230536;33;20042;-70
2023/03/28 14:15:21;;;;;;;3.17;1.52;;;;;;;;;;4233191;33;20085;-69
2023/03/28 14:17:48;;;;;;;6.20;1.50;;;;;;;;;;4234579;33;20072;-69
2023/03/28 14:20:15;;;;;;;5.30;2.22;;;;;;;;;;4232413;33;20042;-70
2023/03/28 14:22:46;;;;;;;5.82;2.33;;;;;;;;;;4219768;33;20207;-70
2023/03/28 14:25:13;;;;;;;5.75;2.67;;;;;;;;;;4216545;33;20239;-70
2023/03/28 14:27:46;;;;;;;3.33;2.03;;;;;;;;;;4216479;33;20072;-73
2023/03/28 14:30:16;;;;;;;8.80;2.62;;;;;;;;;;4215685;33;20031;-69
2023/03/28 14:33:06;;;;;;;2.30;1.85;;;;;;;;;;4225967;33;20787;-72
2023/03/28 14:35:33;;;;;;;10.73;2.83;;;;;;;;;;4235666;33;20050;-70
2023/03/28 14:38:01;;;;;;;2.87;1.80;;;;;;;;;;4237230;33;20035;-70
2023/03/28 14:40:30;;;;;;;1.67;1.58;;;;;;;;;;4234644;33;20061;-73
2023/03/28 14:43:04;;;;;;;2.72;2.12;;;;;;;;;;4224483;33;20086;-70
2023/03/28 14:45:33;;;;;;;3.65;1.50;;;;;;;;;;4205755;34;20039;-70
2023/03/28 14:48:00;;;;;;;4.40;2.00;;;;;;;;;;4187444;34;20055;-70
2023/03/28 14:50:29;;;;;;;1.20;1.15;;;;;;;;;;4192293;34;20069;-73
2023/03/28 14:52:59;;;;;;;1.75;1.65;;;;;;;;;;4191235;34;20090;-70
2023/03/28 14:55:26;;;;;;;1.67;1.55;;;;;;;;;;4192937;34;20136;-71
2023/03/28 14:57:53;;;;;;;2.87;1.60;;;;;;;;;;4191946;34;20077;-69
2023/03/28 15:00:21;;;;;;;4.22;2.17;;;;;;;;;;4181090;34;20525;-69
2023/03/28 15:02:49;;;;;;;4.35;1.60;;;;;;;;;;4193527;34;20596;-70
2023/03/28 15:05:17;;;;;;;2.08;1.62;;;;;;;;;;4190484;34;20091;-69
2023/03/28 15:07:44;;;;;;;8.52;3.55;;;;;;;;;;4175896;34;20032;-70
2023/03/28 15:10:13;;;;;;;8.00;2.30;;;;;;;;;;4176355;34;20208;-69
2023/03/28 15:12:48;;;;;;;8.05;2.72;;;;;;;;;;4165363;34;20073;-69
2023/03/28 15:15:20;;;;;;;3.50;2.28;;;;;;;;;;4150273;34;20301;-68
2023/03/28 15:17:47;;;;;;;10.93;3.97;;;;;;;;;;4163310;34;20058;-68
2023/03/28 15:20:16;;;;;;;10.13;3.47;;;;;;;;;;4163019;34;20081;-70
2023/03/28 15:22:45;;;;;;;6.32;3.50;;;;;;;;;;4174424;34;20355;-71
2023/03/28 15:25:12;;;;;;;8.65;3.53;;;;;;;;;;4176146;34;20066;-69
2023/03/28 15:27:39;;;;;;;6.47;1.92;;;;;;;;;;4177169;34;20048;-69
2023/03/28 15:30:11;;;;;;;1.23;1.12;;;;;;;;;;4189880;34;20404;-69
2023/03/28 15:32:37;;;;;;;6.53;2.85;;;;;;;;;;4182611;34;20089;-69
2023/03/28 15:35:05;;;;;;;4.35;1.60;;;;;;;;;;4180336;34;20513;-72
2023/03/28 15:37:42;;;;;;;2.20;2.00;;;;;;;;;;4179992;34;20078;-70
2023/03/28 15:40:17;;;;;;;1.52;1.42;;;;;;;;;;4194891;34;20047;-71
2023/03/28 15:42:50;;;;;;;1.42;1.33;;;;;;;;;;4178783;34;20447;-74
2023/03/28 15:45:26;;;;;;;2.97;1.37;;;;;;;;;;4179980;34;20044;-71
2023/03/28 15:47:54;;;;;;;4.43;1.95;;;;;;;;;;4174037;34;20127;-69
2023/03/28 15:50:25;;;;;;;5.97;2.20;;;;;;;;;;4179473;34;20065;-70
2023/03/28 15:52:55;;;;;;;7.53;3.50;;;;;;;;;;4194690;34;20073;-70
2023/03/28 15:55:22;;;;;;;8.70;3.83;;;;;;;;;;4194448;34;20062;-71
2023/03/28 15:57:48;;;;;;;11.75;3.40;;;;;;;;;;4166829;34;20049;-71
2023/03/28 16:00:33;;;;;;;6.70;2.58;;;;;;;;;;4166260;34;20039;-73
2023/03/28 16:03:18;;;;;;;8.85;3.45;;;;;;;;;;4158925;34;20358;-69
2023/03/28 16:05:52;;;;;;;9.60;3.85;;;;;;;;;;4178834;34;20403;-72
2023/03/28 16:08:22;;;;;;;5.72;2.65;;;;;;;;;;4164299;34;20086;-70
2023/03/28 16:10:48;;;;;;;2.15;1.98;;;;;;;;;;4157759;34;20097;-69
2023/03/28 16:13:19;;;;;;;7.62;2.60;;;;;;;;;;4166091;34;20092;-70
2023/03/28 16:15:46;;;;;;;6.72;2.12;;;;;;;;;;4164519;34;20067;-70
2023/03/28 16:18:13;;;;;;;7.35;2.45;;;;;;;;;;4156500;34;20576;-70
2023/03/28 16:20:40;;;;;;;6.60;3.12;;;;;;;;;;4152439;34;20067;-69
2023/03/28 16:23:06;;;;;;;7.90;3.33;;;;;;;;;;4148899;34;20071;-70
2023/03/28 16:25:33;;;;;;;6.10;2.80;;;;;;;;;;4125555;34;20087;-70
2023/03/28 16:27:59;;;;;;;6.03;3.08;;;;;;;;;;4128039;34;20575;-69
2023/03/28 16:30:28;;;;;;;10.05;3.72;;;;;;;;;;4165977;34;20052;-70
2023/03/28 16:32:54;;;;;;;7.75;3.42;;;;;;;;;;4151890;34;20057;-69
2023/03/28 16:35:21;;;;;;;5.78;3.00;;;;;;;;;;4175472;34;20457;-70
2023/03/28 16:37:48;;;;;;;24.92;6.70;;;;;;;;;;4165471;34;20531;-71
2023/03/28 16:40:14;;;;;;;14.85;4.75;;;;;;;;;;4202982;34;20047;-68
2023/03/28 16:42:41;;;;;;;10.18;4.05;;;;;;;;;;4206688;34;20047;-68
2023/03/28 16:45:11;;;;;;;10.15;3.80;;;;;;;;;;4207284;34;20627;-70
2023/03/28 16:47:37;;;;;;;13.27;3.78;;;;;;;;;;4202249;34;20164;-69
2023/03/28 16:50:05;;;;;;;9.95;3.97;;;;;;;;;;4184652;34;20044;-70
2023/03/28 16:52:37;;;;;;;3.50;1.62;;;;;;;;;;4190092;34;20069;-72
2023/03/28 16:55:05;;;;;;;8.23;2.37;;;;;;;;;;4221313;33;20069;-69
2023/03/28 16:57:31;;;;;;;8.35;4.00;;;;;;;;;;4215290;33;20390;-69
2023/03/28 16:59:57;;;;;;;7.40;3.35;;;;;;;;;;4231595;33;20162;-73
2023/03/28 17:02:24;;;;;;;11.02;3.97;;;;;;;;;;4220442;33;20989;-70
2023/03/28 17:04:50;;;;;;;8.75;3.55;;;;;;;;;;4219900;33;20068;-71